sensor_id;sensor_type;location;lat;lon;timestamp;temperature;humidity
13569;DHT22;6856;51.460;7.158;2022-08-01T00:00:46;23.00;67.40
13569;DHT22;6856;51.460;7.158;2022-08-01T00:03:19;23.00;67.40
13569;DHT22;6856;51.460;7.158;2022-08-01T00:05:53;23.00;67.40
13569;DHT22;6856;51.460;7.158;2022-08-01T00:08:27;23.00;67.60
13569;DHT22;6856;51.460;7.158;2022-08-01T00:11:01;23.00;67.70
13569;DHT22;6856;51.460;7.158;2022-08-01T00:13:35;23.00;67.70
13569;DHT22;6856;51.460;7.158;2022-08-01T00:16:10;23.00;67.80
13569;DHT22;6856;51.460;7.158;2022-08-01T00:18:44;22.90;67.80
13569;DHT22;6856;51.460;7.158;2022-08-01T00:21:17;22.90;67.90
13569;DHT22;6856;51.460;7.158;2022-08-01T00:23:51;22.90;67.80
13569;DHT22;6856;51.460;7.158;2022-08-01T00:26:24;22.90;67.90
13569;DHT22;6856;51.460;7.158;2022-08-01T00:28:58;22.90;68.00
13569;DHT22;6856;51.460;7.158;2022-08-01T00:31:33;22.90;68.10
13569;DHT22;6856;51.460;7.158;2022-08-01T00:34:06;22.80;68.00
13569;DHT22;6856;51.460;7.158;2022-08-01T00:36:40;22.90;68.30
13569;DHT22;6856;51.460;7.158;2022-08-01T00:39:14;22.80;68.30
13569;DHT22;6856;51.460;7.158;2022-08-01T00:41:48;22.80;68.30
13569;DHT22;6856;51.460;7.158;2022-08-01T00:44:30;22.80;68.60
13569;DHT22;6856;51.460;7.158;2022-08-01T00:47:08;22.80;68.40
13569;DHT22;6856;51.460;7.158;2022-08-01T00:49:43;22.80;68.70
13569;DHT22;6856;51.460;7.158;2022-08-01T00:52:17;22.80;68.70
13569;DHT22;6856;51.460;7.158;2022-08-01T00:54:51;22.80;68.70
13569;DHT22;6856;51.460;7.158;2022-08-01T00:57:25;22.80;68.60
13569;DHT22;6856;51.460;7.158;2022-08-01T01:00:19;22.80;68.80
13569;DHT22;6856;51.460;7.158;2022-08-01T01:02:59;22.80;68.90
13569;DHT22;6856;51.460;7.158;2022-08-01T01:05:41;22.80;68.80
13569;DHT22;6856;51.460;7.158;2022-08-01T01:08:38;22.80;69.20
13569;DHT22;6856;51.460;7.158;2022-08-01T01:11:21;22.80;69.20
13569;DHT22;6856;51.460;7.158;2022-08-01T01:14:05;22.80;69.30
13569;DHT22;6856;51.460;7.158;2022-08-01T01:16:49;22.80;69.10
13569;DHT22;6856;51.460;7.158;2022-08-01T01:19:30;22.80;69.00
13569;DHT22;6856;51.460;7.158;2022-08-01T01:22:22;22.80;69.30
13569;DHT22;6856;51.460;7.158;2022-08-01T01:25:23;22.80;69.60
13569;DHT22;6856;51.460;7.158;2022-08-01T01:28:10;22.80;69.60
13569;DHT22;6856;51.460;7.158;2022-08-01T01:30:53;22.80;69.40
13569;DHT22;6856;51.460;7.158;2022-08-01T01:33:34;22.80;69.40
13569;DHT22;6856;51.460;7.158;2022-08-01T01:36:19;22.80;69.30
13569;DHT22;6856;51.460;7.158;2022-08-01T13:52:43;28.90;54.30
13569;DHT22;6856;51.460;7.158;2022-08-01T13:55:21;28.90;53.30
13569;DHT22;6856;51.460;7.158;2022-08-01T13:57:59;28.90;53.10
13569;DHT22;6856;51.460;7.158;2022-08-01T14:00:34;28.90;52.70
13569;DHT22;6856;51.460;7.158;2022-08-01T14:03:08;28.90;52.40
13569;DHT22;6856;51.460;7.158;2022-08-01T14:05:43;28.90;52.50
13569;DHT22;6856;51.460;7.158;2022-08-01T14:08:19;28.90;52.50
13569;DHT22;6856;51.460;7.158;2022-08-01T14:10:57;28.80;52.30
13569;DHT22;6856;51.460;7.158;2022-08-01T14:13:32;28.90;52.80
13569;DHT22;6856;51.460;7.158;2022-08-01T14:16:16;28.90;52.80
13569;DHT22;6856;51.460;7.158;2022-08-01T14:18:51;28.90;52.80
13569;DHT22;6856;51.460;7.158;2022-08-01T14:21:25;28.90;52.30
13569;DHT22;6856;51.460;7.158;2022-08-01T14:24:01;28.90;52.50
13569;DHT22;6856;51.460;7.158;2022-08-01T14:26:35;28.90;52.10
13569;DHT22;6856;51.460;7.158;2022-08-01T14:29:09;28.90;51.80
13569;DHT22;6856;51.460;7.158;2022-08-01T14:31:44;28.90;51.50
13569;DHT22;6856;51.460;7.158;2022-08-01T14:34:17;28.90;51.80
13569;DHT22;6856;51.460;7.158;2022-08-01T14:36:53;28.90;51.60
13569;DHT22;6856;51.460;7.158;2022-08-01T14:39:29;28.80;51.30
13569;DHT22;6856;51.460;7.158;2022-08-01T14:42:06;28.80;51.50
13569;DHT22;6856;51.460;7.158;2022-08-01T14:44:40;28.70;51.40
13569;DHT22;6856;51.460;7.158;2022-08-01T14:47:21;28.70;51.90
13569;DHT22;6856;51.460;7.158;2022-08-01T14:49:55;28.70;51.70
13569;DHT22;6856;51.460;7.158;2022-08-01T14:52:31;28.70;51.80
13569;DHT22;6856;51.460;7.158;2022-08-01T14:55:08;28.60;51.70
13569;DHT22;6856;51.460;7.158;2022-08-01T14:57:44;28.60;51.50
13569;DHT22;6856;51.460;7.158;2022-08-01T15:00:19;28.60;51.20
13569;DHT22;6856;51.460;7.158;2022-08-01T15:02:54;28.80;51.80
13569;DHT22;6856;51.460;7.158;2022-08-01T15:05:29;28.60;51.30
13569;DHT22;6856;51.460;7.158;2022-08-01T15:08:06;28.60;51.40
13569;DHT22;6856;51.460;7.158;2022-08-01T15:10:42;28.60;51.20
13569;DHT22;6856;51.460;7.158;2022-08-01T15:13:16;28.60;50.40
13569;DHT22;6856;51.460;7.158;2022-08-01T15:15:50;28.50;50.40
13569;DHT22;6856;51.460;7.158;2022-08-01T15:18:26;28.50;50.80
13569;DHT22;6856;51.460;7.158;2022-08-01T15:21:01;28.50;50.70
13569;DHT22;6856;51.460;7.158;2022-08-01T15:23:35;28.50;50.90
13569;DHT22;6856;51.460;7.158;2022-08-01T15:26:13;28.40;50.90
13569;DHT22;6856;51.460;7.158;2022-08-01T15:28:47;28.50;50.90
13569;DHT22;6856;51.460;7.158;2022-08-01T15:31:21;28.50;50.90
13569;DHT22;6856;51.460;7.158;2022-08-01T15:33:58;28.40;51.00
13569;DHT22;6856;51.460;7.158;2022-08-01T15:36:35;28.40;51.00
13569;DHT22;6856;51.460;7.158;2022-08-01T15:39:13;28.40;51.10
13569;DHT22;6856;51.460;7.158;2022-08-01T15:41:53;28.40;51.10
13569;DHT22;6856;51.460;7.158;2022-08-01T15:44:27;28.40;50.80
13569;DHT22;6856;51.460;7.158;2022-08-01T15:47:02;28.40;50.60
13569;DHT22;6856;51.460;7.158;2022-08-01T15:49:38;28.30;51.00
13569;DHT22;6856;51.460;7.158;2022-08-01T15:52:14;28.30;50.50
13569;DHT22;6856;51.460;7.158;2022-08-01T15:54:53;28.40;50.60
13569;DHT22;6856;51.460;7.158;2022-08-01T15:57:29;28.40;50.90
13569;DHT22;6856;51.460;7.158;2022-08-01T16:00:04;28.30;50.50
13569;DHT22;6856;51.460;7.158;2022-08-01T16:02:41;28.30;50.40
13569;DHT22;6856;51.460;7.158;2022-08-01T16:05:15;28.30;50.30
13569;DHT22;6856;51.460;7.158;2022-08-01T16:07:51;28.30;50.50
13569;DHT22;6856;51.460;7.158;2022-08-01T16:10:32;28.30;50.40
13569;DHT22;6856;51.460;7.158;2022-08-01T16:13:08;28.20;50.60
13569;DHT22;6856;51.460;7.158;2022-08-01T16:15:42;28.20;50.70
13569;DHT22;6856;51.460;7.158;2022-08-01T16:18:17;28.20;50.50
13569;DHT22;6856;51.460;7.158;2022-08-01T16:20:53;28.20;50.60
13569;DHT22;6856;51.460;7.158;2022-08-01T16:23:28;28.10;50.50
13569;DHT22;6856;51.460;7.158;2022-08-01T16:26:02;28.20;50.80
13569;DHT22;6856;51.460;7.158;2022-08-01T16:28:58;28.20;50.80
13569;DHT22;6856;51.460;7.158;2022-08-01T16:31:33;28.10;50.80
13569;DHT22;6856;51.460;7.158;2022-08-01T16:34:27;28.10;50.70
13569;DHT22;6856;51.460;7.158;2022-08-01T16:37:02;28.10;50.70
13569;DHT22;6856;51.460;7.158;2022-08-01T16:39:38;28.10;50.80
13569;DHT22;6856;51.460;7.158;2022-08-01T16:42:14;28.10;50.80
13569;DHT22;6856;51.460;7.158;2022-08-01T16:44:49;28.00;50.90
13569;DHT22;6856;51.460;7.158;2022-08-01T16:47:23;28.00;50.60
13569;DHT22;6856;51.460;7.158;2022-08-01T16:49:58;28.10;50.30
13569;DHT22;6856;51.460;7.158;2022-08-01T16:52:33;28.00;50.00
13569;DHT22;6856;51.460;7.158;2022-08-01T16:55:13;28.00;50.20
13569;DHT22;6856;51.460;7.158;2022-08-01T16:57:47;28.00;50.00
13569;DHT22;6856;51.460;7.158;2022-08-01T17:00:24;28.00;49.80
13569;DHT22;6856;51.460;7.158;2022-08-01T17:02:59;28.00;50.10
13569;DHT22;6856;51.460;7.158;2022-08-01T17:05:48;28.00;50.30
13569;DHT22;6856;51.460;7.158;2022-08-01T17:08:22;28.00;50.10
13569;DHT22;6856;51.460;7.158;2022-08-01T17:10:58;28.00;49.90
13569;DHT22;6856;51.460;7.158;2022-08-01T17:13:37;28.00;49.90
13569;DHT22;6856;51.460;7.158;2022-08-01T17:16:12;28.00;49.80
13569;DHT22;6856;51.460;7.158;2022-08-01T17:18:47;28.00;49.90
13569;DHT22;6856;51.460;7.158;2022-08-01T17:21:21;28.00;50.10
13569;DHT22;6856;51.460;7.158;2022-08-01T17:23:55;28.00;50.20
13569;DHT22;6856;51.460;7.158;2022-08-01T17:26:29;27.90;50.40
13569;DHT22;6856;51.460;7.158;2022-08-01T17:29:03;27.90;50.40
13569;DHT22;6856;51.460;7.158;2022-08-01T17:31:39;27.90;50.30
13569;DHT22;6856;51.460;7.158;2022-08-01T17:34:13;27.90;50.30
13569;DHT22;6856;51.460;7.158;2022-08-01T17:36:47;27.90;50.00
13569;DHT22;6856;51.460;7.158;2022-08-01T17:39:22;27.80;49.70
13569;DHT22;6856;51.460;7.158;2022-08-01T17:42:10;27.80;49.90
13569;DHT22;6856;51.460;7.158;2022-08-01T17:44:44;27.80;50.20
13569;DHT22;6856;51.460;7.158;2022-08-01T17:47:24;27.70;49.80
13569;DHT22;6856;51.460;7.158;2022-08-01T17:50:18;27.70;50.20
13569;DHT22;6856;51.460;7.158;2022-08-01T17:52:52;27.60;50.30
13569;DHT22;6856;51.460;7.158;2022-08-01T17:55:26;27.60;50.20
13569;DHT22;6856;51.460;7.158;2022-08-01T17:58:20;27.50;50.00
13569;DHT22;6856;51.460;7.158;2022-08-01T18:01:16;27.50;50.20
